createdAt,value
2023-03-07T00:00:27.577Z,-0.77
2023-03-07T00:03:16.668Z,-0.76
2023-03-07T00:05:44.825Z,-0.81
2023-03-07T00:08:13.125Z,-0.79
2023-03-07T00:10:41.042Z,-0.81
2023-03-07T00:13:09.125Z,-0.79
2023-03-07T00:15:38.946Z,-0.78
2023-03-07T00:18:07.658Z,-0.81
2023-03-07T00:20:35.749Z,-0.86
2023-03-07T00:23:05.034Z,-0.92
2023-03-07T00:25:32.900Z,-0.94
2023-03-07T00:28:00.941Z,-1.01
2023-03-07T00:30:28.811Z,-1.06
2023-03-07T00:32:56.822Z,-1.13
2023-03-07T00:35:24.808Z,-1.22
2023-03-07T00:37:52.737Z,-1.26
2023-03-07T00:40:20.657Z,-1.21
2023-03-07T00:42:48.432Z,-1.19
2023-03-07T00:45:16.486Z,-1.19
2023-03-07T00:47:44.522Z,-1.22
2023-03-07T00:50:13.661Z,-1.29
2023-03-07T00:52:41.653Z,-1.27
2023-03-07T00:55:09.978Z,-1.31
2023-03-07T00:57:37.882Z,-1.37
2023-03-07T01:00:06.460Z,-1.42
2023-03-07T01:02:34.676Z,-1.47
2023-03-07T01:05:02.601Z,-1.49
2023-03-07T01:07:30.680Z,-1.55
2023-03-07T01:09:58.640Z,-1.59
2023-03-07T01:12:26.538Z,-1.58
2023-03-07T01:14:54.838Z,-1.56
2023-03-07T01:17:22.861Z,-1.58
2023-03-07T01:19:50.757Z,-1.69
2023-03-07T01:22:18.713Z,-1.71
2023-03-07T01:24:47.337Z,-1.76
2023-03-07T01:27:15.669Z,-1.77
2023-03-07T01:29:43.807Z,-1.73
2023-03-07T01:32:12.367Z,-1.70
2023-03-07T01:34:40.286Z,-1.66
2023-03-07T01:37:08.244Z,-1.63
2023-03-07T01:39:36.852Z,-1.63
2023-03-07T01:42:08.056Z,-1.67
2023-03-07T01:45:06.906Z,-1.65
2023-03-07T01:47:43.645Z,-1.68
2023-03-07T01:50:17.730Z,-1.70
2023-03-07T01:52:53.662Z,-1.73
2023-03-07T01:55:34.134Z,-1.70
2023-03-07T01:58:13.924Z,-1.72
2023-03-07T02:00:44.255Z,-1.78
2023-03-07T02:03:26.297Z,-1.82
2023-03-07T02:05:58.696Z,-1.82
2023-03-07T02:08:30.292Z,-1.81
2023-03-07T02:10:58.365Z,-1.81
2023-03-07T02:13:26.506Z,-1.81
2023-03-07T02:15:55.117Z,-1.82
2023-03-07T02:18:30.296Z,-1.89
2023-03-07T02:21:12.386Z,-1.86
2023-03-07T02:23:52.523Z,-1.81
2023-03-07T02:26:43.687Z,-1.79
2023-03-07T02:29:13.502Z,-1.79
2023-03-07T02:31:42.685Z,-1.76
2023-03-07T02:34:20.175Z,-1.77
2023-03-07T02:36:53.258Z,-1.70
2023-03-07T02:39:26.305Z,-1.59
2023-03-07T02:41:56.594Z,-1.53
2023-03-07T02:44:31.154Z,-1.46
2023-03-07T02:46:59.068Z,-1.39
2023-03-07T02:49:27.790Z,-1.35
2023-03-07T02:52:00.612Z,-1.40
2023-03-07T02:54:29.243Z,-1.49
2023-03-07T02:56:57.746Z,-1.51
2023-03-07T02:59:26.282Z,-1.53
2023-03-07T03:01:54.508Z,-1.52
2023-03-07T03:04:22.542Z,-1.53
2023-03-07T03:06:50.641Z,-1.50
2023-03-07T03:09:18.533Z,-1.50
2023-03-07T03:11:47.130Z,-1.52
2023-03-07T03:14:15.634Z,-1.54
2023-03-07T03:16:43.592Z,-1.58
2023-03-07T03:19:11.579Z,-1.59
2023-03-07T03:21:39.516Z,-1.57
2023-03-07T03:24:08.632Z,-1.56
2023-03-07T03:26:37.839Z,-1.57
2023-03-07T03:29:05.730Z,-1.59
2023-03-07T03:31:35.133Z,-1.59
2023-03-07T03:34:05.745Z,-1.57
2023-03-07T03:36:34.530Z,-1.59
2023-03-07T03:39:11.039Z,-1.60
2023-03-07T03:41:43.247Z,-1.57
2023-03-07T03:44:11.500Z,-1.59
2023-03-07T03:46:39.554Z,-1.58
2023-03-07T03:49:07.644Z,-1.60
2023-03-07T03:51:36.282Z,-1.63
2023-03-07T03:54:05.014Z,-1.60
2023-03-07T03:56:33.034Z,-1.60
2023-03-07T03:59:00.927Z,-1.56
2023-03-07T04:01:29.551Z,-1.52
2023-03-07T04:03:58.564Z,-1.52
2023-03-07T04:06:29.466Z,-1.46
2023-03-07T04:08:58.179Z,-1.44
2023-03-07T04:11:26.895Z,-1.42
2023-03-07T04:13:55.143Z,-1.41
2023-03-07T04:16:24.232Z,-1.38
2023-03-07T04:18:52.787Z,-1.36
2023-03-07T04:21:21.953Z,-1.28
2023-03-07T04:23:55.550Z,-1.29
2023-03-07T04:26:24.743Z,-1.26
2023-03-07T04:28:52.970Z,-1.20
2023-03-07T04:31:26.984Z,-1.17
2023-03-07T04:33:56.715Z,-1.12
2023-03-07T04:36:25.600Z,-1.08
2023-03-07T04:38:53.891Z,-1.06
2023-03-07T04:41:26.265Z,-1.09
2023-03-07T04:44:04.151Z,-1.11
2023-03-07T04:46:32.256Z,-1.14
2023-03-07T04:49:00.313Z,-1.12
2023-03-07T04:51:28.774Z,-1.04
2023-03-07T04:53:56.788Z,-1.03
2023-03-07T04:56:24.711Z,-1.04
2023-03-07T04:58:52.796Z,-1.03
2023-03-07T05:01:20.693Z,-1.01
2023-03-07T05:03:49.432Z,-1.00
2023-03-07T05:06:19.357Z,-0.97
2023-03-07T05:08:50.527Z,-0.93
2023-03-07T05:11:18.979Z,-0.88
2023-03-07T05:13:47.040Z,-0.80
2023-03-07T05:16:18.500Z,-0.72
2023-03-07T05:18:46.750Z,-0.69
2023-03-07T05:21:14.753Z,-0.68
2023-03-07T05:23:42.763Z,-0.67
2023-03-07T05:26:12.362Z,-0.66
2023-03-07T05:28:40.492Z,-0.65
2023-03-07T05:31:09.118Z,-0.67
2023-03-07T05:33:37.185Z,-0.68
2023-03-07T05:36:05.680Z,-0.67
2023-03-07T05:38:34.455Z,-0.67
2023-03-07T05:41:02.332Z,-0.64
2023-03-07T05:43:30.164Z,-0.59
2023-03-07T05:45:58.402Z,-0.52
2023-03-07T05:48:26.604Z,-0.45
2023-03-07T05:50:54.518Z,-0.42
2023-03-07T05:53:23.282Z,-0.41
2023-03-07T05:55:51.790Z,-0.42
2023-03-07T05:58:20.033Z,-0.38
2023-03-07T06:00:49.624Z,-0.31
2023-03-07T06:03:17.986Z,-0.27
2023-03-07T06:05:49.745Z,-0.23
2023-03-07T06:08:17.788Z,-0.18
2023-03-07T06:10:50.069Z,-0.22
2023-03-07T06:13:22.287Z,-0.22
2023-03-07T06:15:54.891Z,-0.19
2023-03-07T06:18:25.107Z,-0.16
2023-03-07T06:21:01.504Z,-0.14
2023-03-07T06:23:34.320Z,-0.08
2023-03-07T06:26:04.206Z,-0.00
2023-03-07T06:28:33.113Z,0.13
2023-03-07T06:31:08.590Z,0.24
2023-03-07T06:33:36.620Z,0.29
2023-03-07T06:36:10.231Z,0.34
2023-03-07T06:38:39.120Z,0.42
2023-03-07T06:41:07.668Z,0.51
2023-03-07T06:43:36.163Z,0.60
2023-03-07T06:46:05.951Z,0.70
2023-03-07T06:48:36.167Z,0.77
2023-03-07T06:51:07.828Z,0.87
2023-03-07T06:53:36.493Z,1.01
2023-03-07T06:56:04.916Z,1.17
2023-03-07T06:58:33.617Z,1.29
2023-03-07T07:01:02.141Z,1.38
2023-03-07T07:03:30.988Z,1.54
2023-03-07T07:05:58.896Z,1.67
2023-03-07T07:08:26.724Z,1.80
2023-03-07T07:10:59.576Z,1.87
2023-03-07T07:13:28.144Z,1.96
2023-03-07T07:15:56.014Z,2.08
2023-03-07T07:18:25.017Z,2.20
2023-03-07T07:20:56.273Z,2.23
2023-03-07T07:23:25.194Z,2.33
2023-03-07T07:25:53.450Z,2.34
2023-03-07T07:28:21.536Z,2.39
2023-03-07T07:30:49.535Z,2.41
2023-03-07T07:33:17.748Z,2.43
2023-03-07T07:35:48.296Z,2.44
2023-03-07T07:38:16.510Z,2.49
2023-03-07T07:40:45.281Z,2.60
2023-03-07T07:43:16.035Z,2.69
2023-03-07T07:45:50.573Z,2.77
2023-03-07T07:48:21.123Z,2.88
2023-03-07T07:50:49.398Z,3.05
2023-03-07T07:53:18.700Z,3.23
2023-03-07T07:55:48.988Z,3.35
2023-03-07T07:58:17.374Z,3.53
2023-03-07T08:00:46.240Z,3.58
2023-03-07T08:03:14.198Z,3.63
2023-03-07T08:05:51.081Z,3.61
2023-03-07T08:08:19.996Z,3.67
2023-03-07T08:10:49.035Z,3.70
2023-03-07T08:13:17.982Z,3.79
2023-03-07T08:15:46.119Z,3.91
2023-03-07T08:18:14.273Z,4.07
2023-03-07T08:20:42.206Z,4.06
2023-03-07T08:23:10.188Z,4.14
2023-03-07T08:25:38.492Z,4.32
2023-03-07T08:28:06.447Z,4.45
2023-03-07T08:30:37.027Z,4.55
2023-03-07T08:33:04.971Z,4.70
2023-03-07T08:35:32.900Z,4.81
2023-03-07T08:38:01.318Z,4.88
2023-03-07T08:40:30.878Z,4.93
2023-03-07T08:42:59.788Z,4.89
2023-03-07T08:45:27.866Z,4.90
2023-03-07T08:47:56.815Z,4.87
2023-03-07T08:50:27.531Z,4.90
2023-03-07T08:52:55.587Z,5.00
2023-03-07T08:55:23.619Z,5.07
2023-03-07T08:57:51.645Z,5.12
2023-03-07T09:00:19.933Z,5.09
2023-03-07T09:02:47.827Z,4.99
2023-03-07T09:05:15.837Z,4.87
2023-03-07T09:07:44.462Z,4.69
2023-03-07T09:10:12.390Z,4.54
2023-03-07T09:12:40.362Z,4.35
2023-03-07T09:15:09.158Z,4.16
2023-03-07T09:17:37.180Z,4.05
2023-03-07T09:20:07.464Z,3.99
2023-03-07T09:22:35.795Z,3.98
2023-03-07T09:25:04.741Z,3.93
2023-03-07T09:27:32.605Z,3.85
2023-03-07T09:30:00.568Z,3.77
2023-03-07T09:32:28.584Z,3.62
2023-03-07T09:34:57.065Z,3.56
2023-03-07T09:37:25.124Z,3.48
2023-03-07T09:39:52.939Z,3.44
2023-03-07T09:42:34.912Z,3.35
2023-03-07T09:45:42.601Z,3.35
2023-03-07T09:48:51.513Z,3.36
2023-03-07T09:51:30.942Z,3.48
2023-03-07T09:54:03.149Z,3.56
2023-03-07T09:56:40.890Z,3.60
2023-03-07T09:59:26.467Z,3.68
2023-03-07T10:02:21.816Z,3.69
2023-03-07T10:04:56.354Z,3.57
2023-03-07T10:07:26.988Z,3.48
2023-03-07T10:09:59.965Z,3.44
2023-03-07T10:12:46.838Z,3.44
2023-03-07T10:15:17.867Z,3.38
2023-03-07T10:18:26.081Z,3.38
2023-03-07T10:21:14.598Z,3.42
2023-03-07T10:24:00.857Z,3.39
2023-03-07T10:26:44.495Z,3.44
2023-03-07T10:29:17.906Z,3.49
2023-03-07T10:31:49.135Z,3.50
2023-03-07T10:34:28.163Z,3.52
2023-03-07T10:37:18.884Z,3.54
2023-03-07T10:39:55.071Z,3.64
2023-03-07T10:42:24.065Z,3.77
2023-03-07T10:44:52.457Z,3.88
2023-03-07T10:47:22.278Z,3.98
2023-03-07T10:49:55.042Z,4.14
2023-03-07T10:52:40.189Z,4.28
2023-03-07T10:55:31.772Z,4.37
2023-03-07T10:58:19.884Z,4.41
2023-03-07T11:01:06.426Z,4.49
2023-03-07T11:03:55.851Z,4.62
2023-03-07T11:06:28.025Z,4.74
2023-03-07T11:08:56.304Z,4.84
2023-03-07T11:11:26.866Z,4.83
2023-03-07T11:14:14.594Z,4.82
2023-03-07T11:16:51.216Z,4.85
2023-03-07T11:19:43.716Z,4.85
2023-03-07T11:22:34.259Z,4.83
2023-03-07T11:25:26.586Z,4.89
2023-03-07T11:27:57.169Z,4.87
2023-03-07T11:30:41.099Z,4.86
2023-03-07T11:33:23.147Z,4.90
2023-03-07T11:35:51.080Z,4.92
2023-03-07T11:38:24.550Z,4.96
2023-03-07T11:41:05.352Z,5.01
2023-03-07T11:43:46.503Z,5.07
2023-03-07T11:46:26.846Z,5.09
2023-03-07T11:49:22.991Z,5.15
2023-03-07T11:52:07.642Z,5.26
2023-03-07T11:55:00.615Z,5.25
2023-03-07T11:58:14.982Z,5.27
2023-03-07T12:01:01.204Z,5.23
2023-03-07T12:03:41.137Z,5.16
2023-03-07T12:06:59.776Z,5.10
2023-03-07T12:09:46.360Z,5.08
2023-03-07T12:12:19.969Z,5.04
2023-03-07T12:15:15.906Z,4.99
2023-03-07T12:18:12.372Z,5.01
2023-03-07T12:20:46.208Z,5.07
2023-03-07T12:23:26.016Z,5.12
2023-03-07T12:25:53.908Z,5.16
2023-03-07T12:28:21.736Z,5.21
2023-03-07T12:30:53.023Z,5.25
2023-03-07T12:33:40.296Z,5.33
2023-03-07T12:36:17.787Z,5.37
2023-03-07T12:38:58.646Z,5.31
2023-03-07T12:41:52.197Z,5.31
2023-03-07T12:44:36.586Z,5.28
2023-03-07T12:47:26.114Z,5.26
2023-03-07T12:50:00.428Z,5.22
2023-03-07T12:52:36.497Z,5.21
2023-03-07T12:55:20.621Z,5.23
2023-03-07T12:58:07.869Z,5.23
2023-03-07T13:00:41.317Z,5.22
2023-03-07T13:03:15.601Z,5.20
2023-03-07T13:05:44.215Z,5.14
2023-03-07T13:08:20.578Z,5.09
2023-03-07T13:10:49.105Z,5.11
2023-03-07T13:13:42.256Z,5.15
2023-03-07T13:16:31.366Z,5.16
2023-03-07T13:19:37.252Z,5.20
2023-03-07T13:22:14.359Z,5.16
2023-03-07T13:24:47.604Z,5.17
2023-03-07T13:27:20.964Z,5.14
2023-03-07T13:30:12.538Z,5.20
2023-03-07T13:32:56.007Z,5.19
2023-03-07T13:35:39.301Z,5.18
2023-03-07T13:38:28.776Z,5.18
2023-03-07T13:41:00.410Z,5.15
2023-03-07T13:43:28.621Z,5.10
2023-03-07T13:46:01.974Z,5.02
2023-03-07T13:48:30.103Z,4.98
2023-03-07T13:51:01.189Z,4.95
2023-03-07T13:53:34.768Z,4.90
2023-03-07T13:56:20.209Z,4.93
2023-03-07T13:59:21.587Z,4.99
2023-03-07T14:01:57.034Z,4.99
2023-03-07T14:04:41.215Z,5.00
2023-03-07T14:07:22.731Z,5.01
2023-03-07T14:10:09.798Z,4.97
2023-03-07T14:13:05.452Z,5.01
2023-03-07T14:15:47.575Z,4.98
2023-03-07T14:18:20.758Z,4.96
2023-03-07T14:21:21.588Z,4.97
2023-03-07T14:24:02.995Z,4.98
2023-03-07T14:26:48.936Z,5.01
2023-03-07T14:29:23.606Z,5.06
2023-03-07T14:31:54.267Z,5.10
2023-03-07T14:34:22.128Z,5.17
2023-03-07T14:36:52.575Z,5.19
2023-03-07T14:39:22.040Z,5.18
2023-03-07T14:42:22.393Z,5.25
2023-03-07T14:44:56.358Z,5.27
2023-03-07T14:47:42.813Z,5.25
2023-03-07T14:50:32.023Z,5.26
2023-03-07T14:53:13.779Z,5.23
2023-03-07T14:55:44.953Z,5.20
2023-03-07T14:58:25.705Z,5.18
2023-03-07T15:01:04.508Z,5.18
2023-03-07T15:03:33.585Z,5.20
2023-03-07T15:06:03.544Z,5.22
2023-03-07T15:08:40.907Z,5.24
2023-03-07T15:11:33.444Z,5.21
2023-03-07T15:14:18.562Z,5.18
2023-03-07T15:16:58.444Z,5.22
2023-03-07T15:19:32.449Z,5.22
2023-03-07T15:22:03.798Z,5.22
2023-03-07T15:24:38.437Z,5.23
2023-03-07T15:27:10.586Z,5.22
2023-03-07T15:29:48.291Z,5.21
2023-03-07T15:32:39.516Z,5.21
2023-03-07T15:35:07.695Z,5.27
2023-03-07T15:37:51.115Z,5.34
2023-03-07T15:40:32.465Z,5.35
2023-03-07T15:43:04.492Z,5.33
2023-03-07T15:45:38.793Z,5.33
2023-03-07T15:48:31.596Z,5.33
2023-03-07T15:51:03.386Z,5.33
2023-03-07T15:53:36.262Z,5.36
2023-03-07T15:56:08.161Z,5.37
2023-03-07T15:58:42.553Z,5.37
2023-03-07T16:01:16.896Z,5.38
2023-03-07T16:04:09.399Z,5.38
2023-03-07T16:06:45.393Z,5.34
2023-03-07T16:09:18.489Z,5.35
2023-03-07T16:11:47.355Z,5.35
2023-03-07T16:14:26.489Z,5.33
2023-03-07T16:17:12.702Z,5.34
2023-03-07T16:19:40.754Z,5.37
2023-03-07T16:22:16.820Z,5.41
2023-03-07T16:24:44.759Z,5.40
2023-03-07T16:27:16.462Z,5.38
2023-03-07T16:29:45.255Z,5.40
2023-03-07T16:32:15.701Z,5.40
2023-03-07T16:34:44.544Z,5.39
2023-03-07T16:37:13.532Z,5.33
2023-03-07T16:39:41.640Z,5.32
2023-03-07T16:42:27.627Z,5.29
2023-03-07T16:44:55.590Z,5.33
2023-03-07T16:47:23.573Z,5.33
2023-03-07T16:49:51.605Z,5.22
2023-03-07T16:52:19.987Z,5.18
2023-03-07T16:54:48.422Z,5.16
2023-03-07T16:57:17.219Z,5.06
2023-03-07T16:59:47.168Z,4.52
2023-03-07T17:02:21.147Z,3.66
2023-03-07T17:04:49.234Z,2.95
2023-03-07T17:07:20.281Z,2.56
2023-03-07T17:09:48.981Z,2.29
2023-03-07T17:12:20.634Z,2.16
2023-03-07T17:14:48.564Z,1.99
2023-03-07T17:17:30.639Z,1.89
2023-03-07T17:19:58.993Z,1.79
2023-03-07T17:22:26.995Z,1.75
2023-03-07T17:24:55.118Z,1.74
2023-03-07T17:27:23.302Z,1.76
2023-03-07T17:29:54.606Z,1.75
2023-03-07T17:32:22.797Z,1.69
2023-03-07T17:34:50.829Z,1.71
2023-03-07T17:37:18.910Z,1.66
2023-03-07T17:39:48.444Z,1.57
2023-03-07T17:42:16.477Z,1.53
2023-03-07T17:44:44.306Z,1.54
2023-03-07T17:47:12.189Z,1.55
2023-03-07T17:49:40.316Z,1.57
2023-03-07T17:52:08.254Z,1.53
2023-03-07T17:54:36.343Z,1.46
2023-03-07T17:57:04.488Z,1.47
2023-03-07T17:59:33.153Z,1.46
2023-03-07T18:02:01.321Z,1.43
2023-03-07T18:04:31.380Z,1.48
2023-03-07T18:07:00.303Z,1.47
2023-03-07T18:09:28.686Z,1.48
2023-03-07T18:11:56.939Z,1.49
2023-03-07T18:14:25.487Z,1.51
2023-03-07T18:16:53.812Z,1.56
2023-03-07T18:19:26.692Z,1.54
2023-03-07T18:21:55.522Z,1.58
2023-03-07T18:24:26.615Z,1.59
2023-03-07T18:26:55.990Z,1.60
2023-03-07T18:29:23.929Z,1.55
2023-03-07T18:31:52.548Z,1.56
2023-03-07T18:34:20.919Z,1.57
2023-03-07T18:36:51.757Z,1.57
2023-03-07T18:39:23.987Z,1.57
2023-03-07T18:41:52.131Z,1.59
2023-03-07T18:44:20.486Z,1.59
2023-03-07T18:46:48.646Z,1.62
2023-03-07T18:49:16.734Z,1.65
2023-03-07T18:51:46.210Z,1.67
2023-03-07T18:54:14.206Z,1.64
2023-03-07T18:56:45.951Z,1.61
2023-03-07T18:59:14.579Z,1.62
2023-03-07T19:01:42.647Z,1.62
2023-03-07T19:04:11.851Z,1.65
2023-03-07T19:06:42.276Z,1.63
2023-03-07T19:09:20.520Z,1.69
2023-03-07T19:11:48.443Z,1.68
2023-03-07T19:14:16.524Z,1.69
2023-03-07T19:16:45.315Z,1.70
2023-03-07T19:19:13.563Z,1.71
2023-03-07T19:21:41.560Z,1.64
2023-03-07T19:24:11.935Z,1.61
2023-03-07T19:26:41.744Z,1.63
2023-03-07T19:29:12.189Z,1.66
2023-03-07T19:31:43.886Z,1.57
2023-03-07T19:34:12.202Z,1.57
2023-03-07T19:36:41.710Z,1.60
2023-03-07T19:39:15.149Z,1.58
2023-03-07T19:41:45.459Z,1.59
2023-03-07T19:44:14.380Z,1.54
2023-03-07T19:46:46.378Z,1.53
2023-03-07T19:49:15.807Z,1.51
2023-03-07T19:51:43.773Z,1.51
2023-03-07T19:54:15.222Z,1.50
2023-03-07T19:56:45.162Z,1.46
2023-03-07T19:59:13.601Z,1.47
2023-03-07T20:01:41.584Z,1.52
2023-03-07T20:04:12.353Z,1.53
2023-03-07T20:06:42.998Z,1.49
2023-03-07T20:09:12.978Z,1.44
2023-03-07T20:11:43.360Z,1.45
2023-03-07T20:14:12.262Z,1.46
2023-03-07T20:16:40.809Z,1.48
2023-03-07T20:19:09.751Z,1.51
2023-03-07T20:21:38.208Z,1.53
2023-03-07T20:24:08.004Z,1.54
2023-03-07T20:26:38.266Z,1.53
2023-03-07T20:29:07.878Z,1.54
2023-03-07T20:31:39.454Z,1.54
2023-03-07T20:34:08.354Z,1.57
2023-03-07T20:36:37.966Z,1.57
2023-03-07T20:39:10.278Z,1.54
2023-03-07T20:41:38.191Z,1.57
2023-03-07T20:44:07.991Z,1.63
2023-03-07T20:46:38.664Z,1.63
2023-03-07T20:49:06.524Z,1.64
2023-03-07T20:51:36.373Z,1.66
2023-03-07T20:54:12.265Z,1.64
2023-03-07T20:56:41.391Z,1.64
2023-03-07T20:59:13.202Z,1.63
2023-03-07T21:01:42.241Z,1.64
2023-03-07T21:04:13.581Z,1.58
2023-03-07T21:06:43.261Z,1.58
2023-03-07T21:09:13.266Z,1.57
2023-03-07T21:11:46.970Z,1.55
2023-03-07T21:14:17.502Z,1.55
2023-03-07T21:16:45.548Z,1.55
2023-03-07T21:19:14.112Z,1.54
2023-03-07T21:21:42.705Z,1.51
2023-03-07T21:24:12.479Z,1.47
2023-03-07T21:26:40.584Z,1.48
2023-03-07T21:29:09.145Z,1.44
2023-03-07T21:31:38.802Z,1.46
2023-03-07T21:34:10.583Z,1.43
2023-03-07T21:36:38.545Z,1.43
2023-03-07T21:39:10.114Z,1.45
2023-03-07T21:41:38.343Z,1.47
2023-03-07T21:44:06.412Z,1.48
2023-03-07T21:46:34.599Z,1.49
2023-03-07T21:49:02.971Z,1.48
2023-03-07T21:51:30.921Z,1.46
2023-03-07T21:53:58.898Z,1.47
2023-03-07T21:56:26.851Z,1.44
2023-03-07T21:58:55.511Z,1.45
2023-03-07T22:01:26.509Z,1.45
2023-03-07T22:03:56.939Z,1.38
2023-03-07T22:06:25.810Z,1.35
2023-03-07T22:08:53.914Z,1.34
2023-03-07T22:11:22.474Z,1.35
2023-03-07T22:13:50.482Z,1.37
2023-03-07T22:16:20.751Z,1.36
2023-03-07T22:18:54.380Z,1.38
2023-03-07T22:21:25.133Z,1.37
2023-03-07T22:23:58.050Z,1.32
2023-03-07T22:26:28.152Z,1.31
2023-03-07T22:28:56.167Z,1.27
2023-03-07T22:31:25.123Z,1.29
2023-03-07T22:33:53.109Z,1.25
2023-03-07T22:36:21.268Z,1.21
2023-03-07T22:38:54.240Z,1.16
2023-03-07T22:41:23.564Z,1.15
2023-03-07T22:43:52.647Z,1.19
2023-03-07T22:46:21.471Z,1.18
2023-03-07T22:48:55.694Z,1.17
2023-03-07T22:51:25.185Z,1.14
2023-03-07T22:53:53.955Z,1.18
2023-03-07T22:56:24.924Z,1.18
2023-03-07T22:58:53.907Z,1.11
2023-03-07T23:01:24.305Z,1.08
2023-03-07T23:03:54.072Z,1.07
2023-03-07T23:06:24.255Z,1.11
2023-03-07T23:08:53.488Z,1.08
2023-03-07T23:11:23.377Z,1.10
2023-03-07T23:13:51.349Z,1.07
2023-03-07T23:16:21.968Z,1.04
2023-03-07T23:18:50.892Z,1.03
2023-03-07T23:48:02.455Z,1.04
2023-03-07T23:50:30.249Z,1.03
2023-03-07T23:52:58.406Z,1.00
2023-03-07T23:55:26.335Z,0.98
2023-03-07T23:57:54.250Z,1.02
